sensor_id;sensor_type;location;lat;lon;timestamp;P1;durP1;ratioP1;P2;durP2;ratioP2
10537;SDS011;5317;49.048;8.468;2024-03-29T00:01:21;1.73;;;1.20;;
10537;SDS011;5317;49.048;8.468;2024-03-29T00:03:47;1.40;;;1.30;;
10537;SDS011;5317;49.048;8.468;2024-03-29T00:06:13;2.07;;;1.40;;
10537;SDS011;5317;49.048;8.468;2024-03-29T00:08:39;2.00;;;1.30;;
10537;SDS011;5317;49.048;8.468;2024-03-29T00:11:05;1.30;;;1.20;;
10537;SDS011;5317;49.048;8.468;2024-03-29T00:13:32;2.53;;;1.30;;
10537;SDS011;5317;49.048;8.468;2024-03-29T00:15:58;2.07;;;1.30;;
10537;SDS011;5317;49.048;8.468;2024-03-29T00:18:24;2.37;;;1.13;;
10537;SDS011;5317;49.048;8.468;2024-03-29T00:20:50;3.10;;;1.47;;
10537;SDS011;5317;49.048;8.468;2024-03-29T00:23:16;3.70;;;1.50;;
10537;SDS011;5317;49.048;8.468;2024-03-29T00:25:48;2.00;;;1.40;;
10537;SDS011;5317;49.048;8.468;2024-03-29T00:28:13;8.13;;;2.17;;
10537;SDS011;5317;49.048;8.468;2024-03-29T00:30:41;3.10;;;1.40;;
10537;SDS011;5317;49.048;8.468;2024-03-29T00:33:07;3.37;;;1.47;;
10537;SDS011;5317;49.048;8.468;2024-03-29T00:35:33;2.20;;;1.20;;
10537;SDS011;5317;49.048;8.468;2024-03-29T00:37:59;2.27;;;1.20;;
10537;SDS011;5317;49.048;8.468;2024-03-29T00:40:25;1.90;;;1.63;;
10537;SDS011;5317;49.048;8.468;2024-03-29T00:42:51;2.30;;;1.57;;
10537;SDS011;5317;49.048;8.468;2024-03-29T00:45:16;2.20;;;1.80;;
10537;SDS011;5317;49.048;8.468;2024-03-29T00:47:44;2.33;;;1.20;;
10537;SDS011;5317;49.048;8.468;2024-03-29T00:50:10;1.90;;;1.57;;
10537;SDS011;5317;49.048;8.468;2024-03-29T00:52:36;1.90;;;1.50;;
10537;SDS011;5317;49.048;8.468;2024-03-29T00:55:02;1.97;;;1.43;;
10537;SDS011;5317;49.048;8.468;2024-03-29T00:57:28;2.30;;;1.50;;
10537;SDS011;5317;49.048;8.468;2024-03-29T00:59:54;2.63;;;1.30;;
10537;SDS011;5317;49.048;8.468;2024-03-29T01:02:20;1.83;;;1.03;;
10537;SDS011;5317;49.048;8.468;2024-03-29T01:04:48;2.30;;;1.40;;
10537;SDS011;5317;49.048;8.468;2024-03-29T01:07:13;1.33;;;1.10;;
10537;SDS011;5317;49.048;8.468;2024-03-29T01:09:39;2.20;;;1.20;;
10537;SDS011;5317;49.048;8.468;2024-03-29T01:12:05;1.93;;;1.40;;
10537;SDS011;5317;49.048;8.468;2024-03-29T01:14:31;1.47;;;1.30;;
10537;SDS011;5317;49.048;8.468;2024-03-29T01:16:57;2.20;;;1.33;;
10537;SDS011;5317;49.048;8.468;2024-03-29T01:19:23;2.63;;;1.50;;
10537;SDS011;5317;49.048;8.468;2024-03-29T01:21:50;2.33;;;1.20;;
10537;SDS011;5317;49.048;8.468;2024-03-29T01:24:16;2.07;;;1.40;;
10537;SDS011;5317;49.048;8.468;2024-03-29T01:26:42;1.77;;;1.20;;
10537;SDS011;5317;49.048;8.468;2024-03-29T01:29:08;1.93;;;1.20;;
10537;SDS011;5317;49.048;8.468;2024-03-29T01:31:34;1.40;;;1.30;;
10537;SDS011;5317;49.048;8.468;2024-03-29T01:34:00;2.53;;;1.40;;
10537;SDS011;5317;49.048;8.468;2024-03-29T01:36:26;1.97;;;1.40;;
10537;SDS011;5317;49.048;8.468;2024-03-29T01:38:53;1.63;;;1.30;;
10537;SDS011;5317;49.048;8.468;2024-03-29T01:41:19;2.03;;;1.07;;
10537;SDS011;5317;49.048;8.468;2024-03-29T01:43:45;1.87;;;1.27;;
10537;SDS011;5317;49.048;8.468;2024-03-29T01:46:12;2.23;;;1.30;;
10537;SDS011;5317;49.048;8.468;2024-03-29T01:48:39;1.43;;;1.10;;
10537;SDS011;5317;49.048;8.468;2024-03-29T01:51:06;1.47;;;1.30;;
10537;SDS011;5317;49.048;8.468;2024-03-29T01:53:37;2.33;;;1.20;;
10537;SDS011;5317;49.048;8.468;2024-03-29T01:56:06;2.23;;;1.20;;
10537;SDS011;5317;49.048;8.468;2024-03-29T01:58:34;1.53;;;1.17;;
10537;SDS011;5317;49.048;8.468;2024-03-29T02:01:02;1.37;;;1.20;;
10537;SDS011;5317;49.048;8.468;2024-03-29T02:03:30;1.30;;;1.20;;
10537;SDS011;5317;49.048;8.468;2024-03-29T02:05:58;1.93;;;1.20;;
10537;SDS011;5317;49.048;8.468;2024-03-29T02:08:27;2.53;;;1.50;;
10537;SDS011;5317;49.048;8.468;2024-03-29T02:10:54;1.23;;;1.10;;
10537;SDS011;5317;49.048;8.468;2024-03-29T02:13:24;1.20;;;1.10;;
10537;SDS011;5317;49.048;8.468;2024-03-29T02:15:51;1.63;;;1.07;;
10537;SDS011;5317;49.048;8.468;2024-03-29T02:18:18;1.27;;;1.10;;
10537;SDS011;5317;49.048;8.468;2024-03-29T02:20:45;1.40;;;1.10;;
10537;SDS011;5317;49.048;8.468;2024-03-29T02:23:14;1.80;;;1.60;;
10537;SDS011;5317;49.048;8.468;2024-03-29T02:25:45;2.83;;;1.20;;
10537;SDS011;5317;49.048;8.468;2024-03-29T02:28:12;1.47;;;0.97;;
10537;SDS011;5317;49.048;8.468;2024-03-29T02:30:39;1.20;;;0.90;;
10537;SDS011;5317;49.048;8.468;2024-03-29T02:33:06;1.37;;;0.90;;
10537;SDS011;5317;49.048;8.468;2024-03-29T02:35:33;1.10;;;1.00;;
10537;SDS011;5317;49.048;8.468;2024-03-29T02:38:00;3.13;;;1.20;;
10537;SDS011;5317;49.048;8.468;2024-03-29T02:40:27;1.47;;;1.30;;
10537;SDS011;5317;49.048;8.468;2024-03-29T02:42:54;1.60;;;0.97;;
10537;SDS011;5317;49.048;8.468;2024-03-29T02:45:21;1.30;;;1.03;;
10537;SDS011;5317;49.048;8.468;2024-03-29T02:47:48;1.43;;;1.23;;
10537;SDS011;5317;49.048;8.468;2024-03-29T02:50:15;0.90;;;0.90;;
10537;SDS011;5317;49.048;8.468;2024-03-29T02:52:41;2.87;;;1.07;;
10537;SDS011;5317;49.048;8.468;2024-03-29T02:55:08;0.97;;;0.80;;
10537;SDS011;5317;49.048;8.468;2024-03-29T02:57:35;1.00;;;1.00;;
10537;SDS011;5317;49.048;8.468;2024-03-29T03:00:04;1.27;;;0.97;;
10537;SDS011;5317;49.048;8.468;2024-03-29T03:02:30;1.33;;;1.00;;
10537;SDS011;5317;49.048;8.468;2024-03-29T03:04:57;1.20;;;1.10;;
10537;SDS011;5317;49.048;8.468;2024-03-29T03:07:24;1.63;;;1.00;;
10537;SDS011;5317;49.048;8.468;2024-03-29T03:10:08;2.53;;;1.23;;
10537;SDS011;5317;49.048;8.468;2024-03-29T03:12:53;1.50;;;1.00;;
10537;SDS011;5317;49.048;8.468;2024-03-29T03:15:21;1.10;;;1.00;;
10537;SDS011;5317;49.048;8.468;2024-03-29T03:17:48;1.63;;;1.03;;
10537;SDS011;5317;49.048;8.468;2024-03-29T03:20:15;1.27;;;1.03;;
10537;SDS011;5317;49.048;8.468;2024-03-29T03:22:41;1.77;;;1.13;;
10537;SDS011;5317;49.048;8.468;2024-03-29T03:25:08;0.93;;;0.90;;
10537;SDS011;5317;49.048;8.468;2024-03-29T03:27:34;1.20;;;1.10;;
10537;SDS011;5317;49.048;8.468;2024-03-29T03:30:01;1.37;;;1.00;;
10537;SDS011;5317;49.048;8.468;2024-03-29T03:32:28;1.60;;;1.00;;
10537;SDS011;5317;49.048;8.468;2024-03-29T03:34:55;1.40;;;1.00;;
10537;SDS011;5317;49.048;8.468;2024-03-29T03:37:21;0.90;;;0.90;;
10537;SDS011;5317;49.048;8.468;2024-03-29T03:39:47;2.83;;;1.00;;
10537;SDS011;5317;49.048;8.468;2024-03-29T03:42:13;1.43;;;1.33;;
10537;SDS011;5317;49.048;8.468;2024-03-29T03:44:40;1.33;;;1.23;;
10537;SDS011;5317;49.048;8.468;2024-03-29T03:47:06;1.40;;;1.30;;
10537;SDS011;5317;49.048;8.468;2024-03-29T03:49:34;1.73;;;1.00;;
10537;SDS011;5317;49.048;8.468;2024-03-29T03:52:00;1.87;;;1.10;;
10537;SDS011;5317;49.048;8.468;2024-03-29T03:54:27;3.40;;;1.20;;
10537;SDS011;5317;49.048;8.468;2024-03-29T03:56:54;3.43;;;1.30;;
10537;SDS011;5317;49.048;8.468;2024-03-29T03:59:21;1.10;;;1.00;;
10537;SDS011;5317;49.048;8.468;2024-03-29T04:01:47;2.40;;;1.20;;
10537;SDS011;5317;49.048;8.468;2024-03-29T04:04:16;1.10;;;0.80;;
10537;SDS011;5317;49.048;8.468;2024-03-29T04:06:43;1.30;;;1.20;;
10537;SDS011;5317;49.048;8.468;2024-03-29T04:09:10;1.33;;;1.17;;
10537;SDS011;5317;49.048;8.468;2024-03-29T04:11:36;0.73;;;0.70;;
10537;SDS011;5317;49.048;8.468;2024-03-29T04:14:03;1.27;;;1.00;;
10537;SDS011;5317;49.048;8.468;2024-03-29T04:16:29;1.40;;;0.80;;
10537;SDS011;5317;49.048;8.468;2024-03-29T04:18:55;0.77;;;0.77;;
10537;SDS011;5317;49.048;8.468;2024-03-29T04:21:21;0.70;;;0.70;;
10537;SDS011;5317;49.048;8.468;2024-03-29T04:23:49;1.03;;;0.93;;
10537;SDS011;5317;49.048;8.468;2024-03-29T04:26:15;0.77;;;0.70;;
10537;SDS011;5317;49.048;8.468;2024-03-29T04:28:42;1.90;;;1.00;;
10537;SDS011;5317;49.048;8.468;2024-03-29T04:31:08;1.00;;;0.83;;
10537;SDS011;5317;49.048;8.468;2024-03-29T04:33:35;1.07;;;0.93;;
10537;SDS011;5317;49.048;8.468;2024-03-29T04:36:02;1.30;;;1.00;;
10537;SDS011;5317;49.048;8.468;2024-03-29T04:38:31;1.50;;;0.90;;
10537;SDS011;5317;49.048;8.468;2024-03-29T04:40:59;2.10;;;0.80;;
10537;SDS011;5317;49.048;8.468;2024-03-29T04:43:26;1.37;;;0.80;;
10537;SDS011;5317;49.048;8.468;2024-03-29T04:46:01;1.73;;;1.37;;
10537;SDS011;5317;49.048;8.468;2024-03-29T04:48:29;1.00;;;0.73;;
10537;SDS011;5317;49.048;8.468;2024-03-29T04:50:56;1.53;;;0.77;;
10537;SDS011;5317;49.048;8.468;2024-03-29T04:53:23;2.53;;;1.17;;
10537;SDS011;5317;49.048;8.468;2024-03-29T04:55:53;0.87;;;0.87;;
10537;SDS011;5317;49.048;8.468;2024-03-29T04:58:21;0.57;;;0.57;;
10537;SDS011;5317;49.048;8.468;2024-03-29T05:00:48;0.93;;;0.80;;
10537;SDS011;5317;49.048;8.468;2024-03-29T05:03:16;0.93;;;0.90;;
10537;SDS011;5317;49.048;8.468;2024-03-29T05:05:43;1.70;;;0.90;;
10537;SDS011;5317;49.048;8.468;2024-03-29T05:08:10;0.80;;;0.80;;
10537;SDS011;5317;49.048;8.468;2024-03-29T05:10:38;0.60;;;0.60;;
10537;SDS011;5317;49.048;8.468;2024-03-29T05:13:05;1.90;;;0.93;;
10537;SDS011;5317;49.048;8.468;2024-03-29T05:15:34;0.70;;;0.70;;
10537;SDS011;5317;49.048;8.468;2024-03-29T05:18:01;1.43;;;0.90;;
10537;SDS011;5317;49.048;8.468;2024-03-29T05:20:28;0.73;;;0.73;;
10537;SDS011;5317;49.048;8.468;2024-03-29T05:22:55;1.00;;;0.80;;
10537;SDS011;5317;49.048;8.468;2024-03-29T05:25:22;1.40;;;0.73;;
10537;SDS011;5317;49.048;8.468;2024-03-29T05:27:50;0.67;;;0.60;;
10537;SDS011;5317;49.048;8.468;2024-03-29T05:30:16;1.17;;;0.90;;
10537;SDS011;5317;49.048;8.468;2024-03-29T05:32:45;1.70;;;0.80;;
10537;SDS011;5317;49.048;8.468;2024-03-29T05:35:12;1.03;;;0.73;;
10537;SDS011;5317;49.048;8.468;2024-03-29T05:37:39;1.17;;;0.83;;
10537;SDS011;5317;49.048;8.468;2024-03-29T05:40:07;0.80;;;0.80;;
10537;SDS011;5317;49.048;8.468;2024-03-29T05:42:35;0.60;;;0.60;;
10537;SDS011;5317;49.048;8.468;2024-03-29T05:45:03;1.33;;;0.83;;
10537;SDS011;5317;49.048;8.468;2024-03-29T05:47:33;1.13;;;0.83;;
10537;SDS011;5317;49.048;8.468;2024-03-29T05:50:01;1.60;;;0.83;;
10537;SDS011;5317;49.048;8.468;2024-03-29T05:52:28;0.77;;;0.77;;
10537;SDS011;5317;49.048;8.468;2024-03-29T05:54:55;1.50;;;0.70;;
10537;SDS011;5317;49.048;8.468;2024-03-29T05:57:22;2.53;;;1.00;;
10537;SDS011;5317;49.048;8.468;2024-03-29T05:59:54;0.70;;;0.70;;
10537;SDS011;5317;49.048;8.468;2024-03-29T06:02:21;1.13;;;0.83;;
10537;SDS011;5317;49.048;8.468;2024-03-29T06:04:48;1.87;;;1.07;;
10537;SDS011;5317;49.048;8.468;2024-03-29T06:07:17;0.73;;;0.73;;
10537;SDS011;5317;49.048;8.468;2024-03-29T06:09:44;0.60;;;0.60;;
10537;SDS011;5317;49.048;8.468;2024-03-29T06:12:11;1.73;;;0.83;;
10537;SDS011;5317;49.048;8.468;2024-03-29T06:14:38;1.00;;;0.80;;
10537;SDS011;5317;49.048;8.468;2024-03-29T06:17:22;0.60;;;0.60;;
10537;SDS011;5317;49.048;8.468;2024-03-29T06:19:49;1.37;;;0.67;;
10537;SDS011;5317;49.048;8.468;2024-03-29T06:22:18;0.77;;;0.77;;
10537;SDS011;5317;49.048;8.468;2024-03-29T06:24:45;0.80;;;0.80;;
10537;SDS011;5317;49.048;8.468;2024-03-29T06:27:12;1.80;;;1.07;;
10537;SDS011;5317;49.048;8.468;2024-03-29T06:29:41;0.90;;;0.80;;
10537;SDS011;5317;49.048;8.468;2024-03-29T06:32:08;1.50;;;0.90;;
10537;SDS011;5317;49.048;8.468;2024-03-29T06:34:35;0.70;;;0.70;;
10537;SDS011;5317;49.048;8.468;2024-03-29T06:37:02;1.80;;;0.90;;
10537;SDS011;5317;49.048;8.468;2024-03-29T06:39:30;0.97;;;0.97;;
10537;SDS011;5317;49.048;8.468;2024-03-29T06:41:57;1.23;;;0.80;;
10537;SDS011;5317;49.048;8.468;2024-03-29T06:44:24;1.63;;;0.87;;
10537;SDS011;5317;49.048;8.468;2024-03-29T06:46:51;0.87;;;0.80;;
10537;SDS011;5317;49.048;8.468;2024-03-29T06:49:18;0.70;;;0.70;;
10537;SDS011;5317;49.048;8.468;2024-03-29T06:51:44;1.37;;;1.00;;
10537;SDS011;5317;49.048;8.468;2024-03-29T06:54:11;1.43;;;1.20;;
10537;SDS011;5317;49.048;8.468;2024-03-29T06:56:39;1.30;;;1.20;;
10537;SDS011;5317;49.048;8.468;2024-03-29T06:59:06;1.47;;;1.10;;
10537;SDS011;5317;49.048;8.468;2024-03-29T07:01:33;1.23;;;1.10;;
10537;SDS011;5317;49.048;8.468;2024-03-29T07:04:01;2.03;;;1.43;;
10537;SDS011;5317;49.048;8.468;2024-03-29T07:06:28;2.40;;;1.40;;
10537;SDS011;5317;49.048;8.468;2024-03-29T07:08:55;1.93;;;1.33;;
10537;SDS011;5317;49.048;8.468;2024-03-29T07:11:22;2.23;;;1.50;;
10537;SDS011;5317;49.048;8.468;2024-03-29T07:13:50;3.03;;;2.10;;
10537;SDS011;5317;49.048;8.468;2024-03-29T07:16:17;2.27;;;1.73;;
10537;SDS011;5317;49.048;8.468;2024-03-29T07:18:44;2.40;;;1.50;;
10537;SDS011;5317;49.048;8.468;2024-03-29T07:21:10;3.10;;;1.50;;
10537;SDS011;5317;49.048;8.468;2024-03-29T07:23:37;3.77;;;1.70;;
10537;SDS011;5317;49.048;8.468;2024-03-29T07:26:05;3.27;;;1.93;;
10537;SDS011;5317;49.048;8.468;2024-03-29T07:28:32;3.87;;;2.33;;
10537;SDS011;5317;49.048;8.468;2024-03-29T07:31:04;3.57;;;1.97;;
10537;SDS011;5317;49.048;8.468;2024-03-29T07:33:32;3.23;;;1.80;;
10537;SDS011;5317;49.048;8.468;2024-03-29T07:35:59;3.07;;;2.10;;
10537;SDS011;5317;49.048;8.468;2024-03-29T07:38:27;2.77;;;2.10;;
10537;SDS011;5317;49.048;8.468;2024-03-29T07:40:55;2.90;;;2.00;;
10537;SDS011;5317;49.048;8.468;2024-03-29T07:43:22;3.23;;;2.00;;
10537;SDS011;5317;49.048;8.468;2024-03-29T07:45:49;3.77;;;2.10;;
10537;SDS011;5317;49.048;8.468;2024-03-29T07:48:17;2.10;;;1.73;;
10537;SDS011;5317;49.048;8.468;2024-03-29T07:50:45;2.17;;;1.97;;
10537;SDS011;5317;49.048;8.468;2024-03-29T07:53:12;4.33;;;2.30;;
10537;SDS011;5317;49.048;8.468;2024-03-29T07:55:39;3.90;;;2.30;;
10537;SDS011;5317;49.048;8.468;2024-03-29T07:58:07;6.10;;;2.07;;
10537;SDS011;5317;49.048;8.468;2024-03-29T08:00:38;4.43;;;2.23;;
10537;SDS011;5317;49.048;8.468;2024-03-29T08:03:06;2.30;;;1.80;;
10537;SDS011;5317;49.048;8.468;2024-03-29T08:05:34;3.73;;;2.00;;
10537;SDS011;5317;49.048;8.468;2024-03-29T08:08:01;4.87;;;2.47;;
10537;SDS011;5317;49.048;8.468;2024-03-29T08:10:29;3.23;;;2.23;;
10537;SDS011;5317;49.048;8.468;2024-03-29T08:12:56;3.00;;;2.03;;
10537;SDS011;5317;49.048;8.468;2024-03-29T08:15:22;4.37;;;2.10;;
10537;SDS011;5317;49.048;8.468;2024-03-29T08:17:50;3.17;;;2.00;;
10537;SDS011;5317;49.048;8.468;2024-03-29T08:20:17;3.37;;;2.13;;
10537;SDS011;5317;49.048;8.468;2024-03-29T08:22:45;3.77;;;2.40;;
10537;SDS011;5317;49.048;8.468;2024-03-29T08:25:12;2.73;;;1.80;;
10537;SDS011;5317;49.048;8.468;2024-03-29T08:27:39;3.57;;;2.00;;
10537;SDS011;5317;49.048;8.468;2024-03-29T08:30:07;2.90;;;1.70;;
10537;SDS011;5317;49.048;8.468;2024-03-29T08:32:34;3.10;;;1.63;;
10537;SDS011;5317;49.048;8.468;2024-03-29T08:35:01;2.33;;;1.57;;
10537;SDS011;5317;49.048;8.468;2024-03-29T08:37:28;4.37;;;1.60;;
10537;SDS011;5317;49.048;8.468;2024-03-29T08:39:57;2.67;;;1.80;;
10537;SDS011;5317;49.048;8.468;2024-03-29T08:42:24;4.00;;;2.20;;
10537;SDS011;5317;49.048;8.468;2024-03-29T08:44:51;2.17;;;1.70;;
10537;SDS011;5317;49.048;8.468;2024-03-29T08:47:18;2.47;;;2.27;;
10537;SDS011;5317;49.048;8.468;2024-03-29T08:49:45;4.47;;;1.93;;
10537;SDS011;5317;49.048;8.468;2024-03-29T08:52:11;3.40;;;1.63;;
10537;SDS011;5317;49.048;8.468;2024-03-29T08:54:40;2.60;;;1.80;;
10537;SDS011;5317;49.048;8.468;2024-03-29T08:57:09;3.07;;;1.73;;
10537;SDS011;5317;49.048;8.468;2024-03-29T08:59:36;4.07;;;1.70;;
10537;SDS011;5317;49.048;8.468;2024-03-29T09:02:03;3.13;;;1.50;;
10537;SDS011;5317;49.048;8.468;2024-03-29T09:04:32;2.07;;;1.30;;
10537;SDS011;5317;49.048;8.468;2024-03-29T09:07:00;1.70;;;1.37;;
10537;SDS011;5317;49.048;8.468;2024-03-29T09:09:28;2.67;;;1.60;;
10537;SDS011;5317;49.048;8.468;2024-03-29T09:11:55;3.50;;;1.70;;
10537;SDS011;5317;49.048;8.468;2024-03-29T09:14:24;2.30;;;1.70;;
10537;SDS011;5317;49.048;8.468;2024-03-29T09:16:53;2.07;;;1.30;;
10537;SDS011;5317;49.048;8.468;2024-03-29T09:19:19;1.97;;;1.70;;
10537;SDS011;5317;49.048;8.468;2024-03-29T09:21:46;1.63;;;1.40;;
10537;SDS011;5317;49.048;8.468;2024-03-29T09:24:13;1.90;;;1.60;;
10537;SDS011;5317;49.048;8.468;2024-03-29T09:26:42;1.80;;;1.30;;
10537;SDS011;5317;49.048;8.468;2024-03-29T09:29:09;2.40;;;1.67;;
10537;SDS011;5317;49.048;8.468;2024-03-29T09:31:39;3.20;;;1.80;;
10537;SDS011;5317;49.048;8.468;2024-03-29T09:34:06;2.43;;;1.57;;
10537;SDS011;5317;49.048;8.468;2024-03-29T09:36:34;3.90;;;1.60;;
10537;SDS011;5317;49.048;8.468;2024-03-29T09:39:01;3.33;;;1.70;;
10537;SDS011;5317;49.048;8.468;2024-03-29T09:41:29;1.67;;;1.30;;
10537;SDS011;5317;49.048;8.468;2024-03-29T09:43:59;2.90;;;1.53;;
10537;SDS011;5317;49.048;8.468;2024-03-29T09:46:29;1.83;;;1.60;;
10537;SDS011;5317;49.048;8.468;2024-03-29T09:49:00;3.37;;;1.70;;
10537;SDS011;5317;49.048;8.468;2024-03-29T09:51:28;3.17;;;1.40;;
10537;SDS011;5317;49.048;8.468;2024-03-29T09:53:56;2.60;;;1.50;;
10537;SDS011;5317;49.048;8.468;2024-03-29T09:56:25;2.53;;;1.50;;
10537;SDS011;5317;49.048;8.468;2024-03-29T09:58:53;1.60;;;1.50;;
10537;SDS011;5317;49.048;8.468;2024-03-29T10:01:20;1.77;;;1.30;;
10537;SDS011;5317;49.048;8.468;2024-03-29T10:03:48;4.43;;;1.90;;
10537;SDS011;5317;49.048;8.468;2024-03-29T10:06:17;1.70;;;1.30;;
10537;SDS011;5317;49.048;8.468;2024-03-29T10:08:45;1.90;;;1.40;;
10537;SDS011;5317;49.048;8.468;2024-03-29T10:11:13;1.83;;;1.50;;
10537;SDS011;5317;49.048;8.468;2024-03-29T10:13:43;3.03;;;1.40;;
10537;SDS011;5317;49.048;8.468;2024-03-29T10:16:10;1.50;;;1.40;;
10537;SDS011;5317;49.048;8.468;2024-03-29T10:18:40;3.73;;;1.40;;
10537;SDS011;5317;49.048;8.468;2024-03-29T10:21:08;2.40;;;1.50;;
10537;SDS011;5317;49.048;8.468;2024-03-29T10:23:37;3.27;;;1.83;;
10537;SDS011;5317;49.048;8.468;2024-03-29T10:26:05;8.83;;;2.40;;
10537;SDS011;5317;49.048;8.468;2024-03-29T10:28:33;2.60;;;1.50;;
10537;SDS011;5317;49.048;8.468;2024-03-29T10:31:01;1.50;;;1.40;;
10537;SDS011;5317;49.048;8.468;2024-03-29T10:33:29;2.00;;;1.30;;
10537;SDS011;5317;49.048;8.468;2024-03-29T10:35:56;1.97;;;1.47;;
10537;SDS011;5317;49.048;8.468;2024-03-29T10:38:24;1.80;;;1.40;;
10537;SDS011;5317;49.048;8.468;2024-03-29T10:40:53;3.17;;;1.50;;
10537;SDS011;5317;49.048;8.468;2024-03-29T10:43:20;1.63;;;1.53;;
10537;SDS011;5317;49.048;8.468;2024-03-29T10:45:47;2.83;;;1.20;;
10537;SDS011;5317;49.048;8.468;2024-03-29T10:48:16;4.57;;;1.40;;
10537;SDS011;5317;49.048;8.468;2024-03-29T10:50:43;1.07;;;1.00;;
10537;SDS011;5317;49.048;8.468;2024-03-29T10:53:12;2.60;;;1.40;;
10537;SDS011;5317;49.048;8.468;2024-03-29T10:55:41;1.40;;;1.30;;
10537;SDS011;5317;49.048;8.468;2024-03-29T10:58:11;1.50;;;1.40;;
10537;SDS011;5317;49.048;8.468;2024-03-29T11:00:41;2.17;;;1.93;;
10537;SDS011;5317;49.048;8.468;2024-03-29T11:03:13;2.10;;;1.90;;
10537;SDS011;5317;49.048;8.468;2024-03-29T11:05:44;1.50;;;1.40;;
10537;SDS011;5317;49.048;8.468;2024-03-29T11:08:14;3.07;;;1.43;;
10537;SDS011;5317;49.048;8.468;2024-03-29T11:10:45;1.87;;;1.30;;
10537;SDS011;5317;49.048;8.468;2024-03-29T11:13:18;1.30;;;1.10;;
10537;SDS011;5317;49.048;8.468;2024-03-29T11:15:50;2.67;;;1.23;;
10537;SDS011;5317;49.048;8.468;2024-03-29T11:18:17;2.67;;;1.23;;
10537;SDS011;5317;49.048;8.468;2024-03-29T11:20:45;1.50;;;1.30;;
10537;SDS011;5317;49.048;8.468;2024-03-29T11:23:16;1.60;;;1.30;;
10537;SDS011;5317;49.048;8.468;2024-03-29T11:25:45;2.00;;;1.23;;
10537;SDS011;5317;49.048;8.468;2024-03-29T11:28:15;1.57;;;1.20;;
10537;SDS011;5317;49.048;8.468;2024-03-29T11:30:51;1.30;;;1.20;;
10537;SDS011;5317;49.048;8.468;2024-03-29T11:33:25;1.97;;;1.40;;
10537;SDS011;5317;49.048;8.468;2024-03-29T11:35:56;2.63;;;1.37;;
10537;SDS011;5317;49.048;8.468;2024-03-29T11:38:29;1.57;;;1.47;;
10537;SDS011;5317;49.048;8.468;2024-03-29T11:41:03;1.80;;;1.50;;
10537;SDS011;5317;49.048;8.468;2024-03-29T11:43:33;1.27;;;1.17;;
10537;SDS011;5317;49.048;8.468;2024-03-29T11:46:01;1.70;;;1.50;;
10537;SDS011;5317;49.048;8.468;2024-03-29T11:48:29;1.60;;;1.50;;
10537;SDS011;5317;49.048;8.468;2024-03-29T11:50:57;2.57;;;1.50;;
10537;SDS011;5317;49.048;8.468;2024-03-29T11:53:25;2.20;;;1.10;;
10537;SDS011;5317;49.048;8.468;2024-03-29T11:55:53;1.87;;;1.50;;
10537;SDS011;5317;49.048;8.468;2024-03-29T11:58:20;1.53;;;1.43;;
10537;SDS011;5317;49.048;8.468;2024-03-29T12:00:49;3.90;;;1.83;;
10537;SDS011;5317;49.048;8.468;2024-03-29T12:03:17;2.90;;;2.60;;
10537;SDS011;5317;49.048;8.468;2024-03-29T12:05:47;2.80;;;1.70;;
10537;SDS011;5317;49.048;8.468;2024-03-29T12:08:15;3.30;;;1.90;;
10537;SDS011;5317;49.048;8.468;2024-03-29T12:10:42;1.80;;;1.30;;
10537;SDS011;5317;49.048;8.468;2024-03-29T12:13:10;1.63;;;1.20;;
10537;SDS011;5317;49.048;8.468;2024-03-29T12:15:37;2.00;;;1.30;;
10537;SDS011;5317;49.048;8.468;2024-03-29T12:18:05;1.37;;;1.27;;
10537;SDS011;5317;49.048;8.468;2024-03-29T12:20:32;1.40;;;1.30;;
10537;SDS011;5317;49.048;8.468;2024-03-29T12:23:00;2.47;;;1.70;;
10537;SDS011;5317;49.048;8.468;2024-03-29T12:25:29;2.63;;;1.60;;
10537;SDS011;5317;49.048;8.468;2024-03-29T12:27:56;1.97;;;1.20;;
10537;SDS011;5317;49.048;8.468;2024-03-29T12:30:24;1.90;;;1.30;;
10537;SDS011;5317;49.048;8.468;2024-03-29T12:32:59;2.80;;;1.17;;
10537;SDS011;5317;49.048;8.468;2024-03-29T12:35:28;1.90;;;1.80;;
10537;SDS011;5317;49.048;8.468;2024-03-29T12:37:57;2.53;;;1.40;;
10537;SDS011;5317;49.048;8.468;2024-03-29T12:40:25;1.90;;;1.70;;
10537;SDS011;5317;49.048;8.468;2024-03-29T12:42:53;1.90;;;1.70;;
10537;SDS011;5317;49.048;8.468;2024-03-29T12:45:21;1.67;;;1.40;;
10537;SDS011;5317;49.048;8.468;2024-03-29T12:47:48;2.20;;;1.57;;
10537;SDS011;5317;49.048;8.468;2024-03-29T12:50:19;2.17;;;1.20;;
10537;SDS011;5317;49.048;8.468;2024-03-29T12:52:53;2.43;;;1.20;;
10537;SDS011;5317;49.048;8.468;2024-03-29T12:55:21;1.33;;;1.10;;
10537;SDS011;5317;49.048;8.468;2024-03-29T12:57:48;2.37;;;1.30;;
10537;SDS011;5317;49.048;8.468;2024-03-29T13:00:15;1.70;;;1.13;;
10537;SDS011;5317;49.048;8.468;2024-03-29T13:02:42;1.27;;;1.13;;
10537;SDS011;5317;49.048;8.468;2024-03-29T13:05:09;2.47;;;1.33;;
10537;SDS011;5317;49.048;8.468;2024-03-29T13:07:36;3.37;;;1.60;;
10537;SDS011;5317;49.048;8.468;2024-03-29T13:10:05;2.30;;;1.83;;
10537;SDS011;5317;49.048;8.468;2024-03-29T13:12:37;4.27;;;1.57;;
10537;SDS011;5317;49.048;8.468;2024-03-29T13:15:14;1.90;;;1.70;;
10537;SDS011;5317;49.048;8.468;2024-03-29T13:17:42;1.73;;;1.63;;
10537;SDS011;5317;49.048;8.468;2024-03-29T13:20:09;2.93;;;1.60;;
10537;SDS011;5317;49.048;8.468;2024-03-29T13:22:36;3.70;;;1.70;;
10537;SDS011;5317;49.048;8.468;2024-03-29T13:25:05;2.27;;;1.73;;
10537;SDS011;5317;49.048;8.468;2024-03-29T13:27:32;4.10;;;1.80;;
10537;SDS011;5317;49.048;8.468;2024-03-29T13:29:59;1.50;;;1.33;;
10537;SDS011;5317;49.048;8.468;2024-03-29T13:32:26;1.57;;;1.47;;
10537;SDS011;5317;49.048;8.468;2024-03-29T13:34:54;3.17;;;1.90;;
10537;SDS011;5317;49.048;8.468;2024-03-29T13:37:21;2.03;;;1.80;;
10537;SDS011;5317;49.048;8.468;2024-03-29T13:39:51;3.23;;;1.80;;
10537;SDS011;5317;49.048;8.468;2024-03-29T13:42:20;2.27;;;1.90;;
10537;SDS011;5317;49.048;8.468;2024-03-29T13:44:49;2.40;;;1.73;;
10537;SDS011;5317;49.048;8.468;2024-03-29T13:47:16;2.80;;;2.10;;
10537;SDS011;5317;49.048;8.468;2024-03-29T13:49:43;2.80;;;2.10;;
10537;SDS011;5317;49.048;8.468;2024-03-29T13:52:10;4.57;;;2.37;;
10537;SDS011;5317;49.048;8.468;2024-03-29T13:54:41;3.30;;;2.23;;
10537;SDS011;5317;49.048;8.468;2024-03-29T13:57:09;3.70;;;2.20;;
10537;SDS011;5317;49.048;8.468;2024-03-29T13:59:37;2.57;;;2.37;;
10537;SDS011;5317;49.048;8.468;2024-03-29T14:02:06;2.90;;;2.40;;
10537;SDS011;5317;49.048;8.468;2024-03-29T14:04:37;5.50;;;2.97;;
10537;SDS011;5317;49.048;8.468;2024-03-29T14:07:04;3.93;;;2.43;;
10537;SDS011;5317;49.048;8.468;2024-03-29T14:09:33;5.23;;;2.53;;
10537;SDS011;5317;49.048;8.468;2024-03-29T14:12:00;3.57;;;2.03;;
10537;SDS011;5317;49.048;8.468;2024-03-29T14:14:28;2.67;;;2.00;;
10537;SDS011;5317;49.048;8.468;2024-03-29T14:16:56;3.20;;;1.90;;
10537;SDS011;5317;49.048;8.468;2024-03-29T14:19:28;3.80;;;2.30;;
10537;SDS011;5317;49.048;8.468;2024-03-29T14:21:55;3.13;;;1.97;;
10537;SDS011;5317;49.048;8.468;2024-03-29T14:24:22;5.57;;;2.30;;
10537;SDS011;5317;49.048;8.468;2024-03-29T14:26:50;2.77;;;2.27;;
10537;SDS011;5317;49.048;8.468;2024-03-29T14:29:17;2.20;;;1.90;;
10537;SDS011;5317;49.048;8.468;2024-03-29T14:31:46;3.00;;;2.20;;
10537;SDS011;5317;49.048;8.468;2024-03-29T14:34:14;2.73;;;2.07;;
10537;SDS011;5317;49.048;8.468;2024-03-29T14:36:41;3.57;;;2.40;;
10537;SDS011;5317;49.048;8.468;2024-03-29T14:39:08;3.33;;;2.20;;
10537;SDS011;5317;49.048;8.468;2024-03-29T14:41:37;3.83;;;2.30;;
10537;SDS011;5317;49.048;8.468;2024-03-29T14:44:04;4.30;;;2.30;;
10537;SDS011;5317;49.048;8.468;2024-03-29T14:46:32;2.97;;;2.40;;
10537;SDS011;5317;49.048;8.468;2024-03-29T14:48:59;4.00;;;2.20;;
10537;SDS011;5317;49.048;8.468;2024-03-29T14:51:27;3.03;;;2.23;;
10537;SDS011;5317;49.048;8.468;2024-03-29T14:53:54;3.07;;;2.43;;
10537;SDS011;5317;49.048;8.468;2024-03-29T14:56:21;3.53;;;2.50;;
10537;SDS011;5317;49.048;8.468;2024-03-29T14:58:48;4.20;;;2.70;;
10537;SDS011;5317;49.048;8.468;2024-03-29T15:01:15;3.47;;;2.60;;
10537;SDS011;5317;49.048;8.468;2024-03-29T15:03:42;6.23;;;2.60;;